AirNav  
 
 520 users online  

7XS0 Polly Ranch Airport
Friendswood, Texas, USA

GOING TO FRIENDSWOOD?


FAA INFORMATION EFFECTIVE 01 FEBRUARY 2018

Location

FAA Identifier: 7XS0
Lat/Long: 29-30-16.8390N / 095-10-31.7580W
29-30.280650N / 095-10.529300W
29.5046775 / -95.1754883
(estimated)
Elevation: 24 ft. / 7.3 m (surveyed)
Variation: 06E (1985)
From city: 3 miles SE of FRIENDSWOOD, TX
Time zone: UTC -6 (UTC -5 during Daylight Saving Time)
Zip code: 77546

Airport Operations

Airport use: Private use. Permission required prior to landing
Activation date: 03/1977
Control tower: no
ARTCC: HOUSTON CENTER
FSS: MONTGOMERY COUNTY FLIGHT SERVICE STATION
Attendance: UNATNDD
Wind indicator: yes
Segmented circle: no
Lights: SS-SR
Landing fee: yes

Airport Communications

WX ASOS at LVJ (4 nm W): 118.525 (281-992-1853)
WX ASOS at HOU (10 nm NW): PHONE 713-847-1462
WX AWOS-3 at AXH (16 nm W): 123.625 (281-431-6572)

Nearby radio navigation aids

VOR radial/distance  VOR name  Freq  Var
HUBr145/10.5HOBBY VOR/DME117.1005E
VUHr305/21.4SCHOLES VOR/DME113.0006E
MHFr257/22.5TRINITY VOR/DME113.6007E
IAHr157/28.5HUMBLE VORTAC116.6005E

 
NDB name  Hdg/Dist  Freq  Var  ID
SANJAC204/11.334705EJPA .--- .--. .-
GALVESTON287/24.220608EGLS --. .-.. ...
NIXIN171/29.432605EBVP -... ...- .--.

Airport Services

Runway Information

Runway 11/29

Dimensions: 2700 x 22 ft. / 823 x 7 m
Surface: asphalt
Runway edge lights: low intensity
RUNWAY 11  RUNWAY 29
Traffic pattern: leftleft
Displaced threshold: 300 ft.300 ft.
Obstructions: none50 ft. trees, 500 ft. from runway

Airport Ownership and Management from official FAA records

Ownership: Privately-owned
Owner: POLLY RANCH HOME OWNERS ASSOC
PO BOX 161
FRIENDSWOOD, TX 77546
Phone 713-482-6430
Manager: POLLY RANCH HOME OWNERS ASSOC
PO BOX 161
FRIENDSWOOD, TX 77546
Phone 713-503-2055

Airport Operational Statistics

Aircraft based on the field: 36
Single engine airplanes: 30
Multi engine airplanes: 6
    

Additional Remarks

TO OBTAIN IFR CLEARANCE, CALL HOUSTON TRACON (I90) 1-281-443-5844.
FOR FLT PLAN FILING CALL MONTGOMERY CO. (CXO) FSS 1-800-WXBRIEF/1800-992-7433.

Instrument Procedures

There are no published instrument procedures at 7XS0.

Some nearby airports with instrument procedures:

KLVJ - Pearland Regional Airport (4 nm W)
KEFD - Ellington Airport (6 nm N)
KHOU - William P Hobby Airport (10 nm NW)
T41 - La Porte Municipal Airport (11 nm NE)
KAXH - Houston Southwest Airport (16 nm W)
 
Loc | Ops | Rwys | IFR | FBO | Links
Com | Nav | Svcs | Stats | Notes

AirNav Hotels Sweepstakes
 
Area around 7XS0 (Polly Ranch Airport)
 
Road maps at: MapQuest Bing Google
 
Aerial photo
WARNING: Photo may not be current or correct
Aerial photo of 7XS0 (Polly Ranch Airport)
Do you have a better or more recent aerial photo of Polly Ranch Airport that you would like to share? If so, please send us your photo.

 
Sectional chart

 
Airport distance calculator
Flying to Polly Ranch Airport? Find the distance to fly.

From to 7XS0

Sunrise and sunset
Times for 24-Feb-2018
 Local
(UTC-6)
 Zulu
(UTC)
Morning civil twilight06:2812:28
Sunrise06:5312:53
Sunset18:1500:15
Evening civil twilight18:3900:39

Current date and time
Zulu (UTC)  24-Feb-2018 12:04:53
Local (UTC-6)  24-Feb-2018 06:04:53
 
METAR
KLVJ 
4nm W 
241158Z AUTO 17008KT 7SM BKN008 BKN012 OVC021 22/22 A2999 RMK AO2 T02220217
KEFD 
6nm N 
241150Z 16008KT 7SM SCT011 22/21 A2998
KHOU 
10nm NW 
241153Z 17008G16KT 8SM SCT013 BKN033 22/22 A2997 RMK AO2 SLP152 60001 70001 T02220217 10228 20222 55005 $
KAXH 
16nm W 
241155Z AUTO 18004KT 10SM SCT017 OVC029 22/20 A2998 RMK AO2 T02190203 10220 20216
TAF
KEFD 
6nm N 
240400Z 2404/2510 14009KT 9999 OVC008 QNH2997INS BECMG 2408/2409 15010G15KT 9999 OVC005 QNH2996INS BECMG 2417/2418 18015G25KT 8000 -SHRA OVC005 QNH2990INS TEMPO 2506/2509 4800 -TSRA OVC005CB TX26/2421Z TN21/2412Z
KHOU 
10nm NW 
241136Z 2412/2512 16007KT P6SM VCSH SCT014 BKN029 FM241600 17012KT P6SM SCT008 OVC015 FM241900 19015G23KT P6SM BKN025 FM242300 20010KT P6SM -SHRA SCT010 OVC020 FM250500 25007KT P6SM VCSH BKN008 OVC015 FM250800 33005KT P6SM VCSH OVC004
NOTAMs
Click for the latest NOTAMs
NOTAMs are issued by the DoD/FAA and will open in a separate window not controlled by AirNav.

 

 
 

Would you like to see your business listed on this page?

 If your business provides an interesting product or service to pilots, flight crews, aircraft, or users of the Polly Ranch Airport, you should consider listing it here.  To start the listing process, click on the button below
 
Add a business
 

Other Pages about Polly Ranch Airport

www.pollyranch.com
 
Update a link
 
Copyright © AirNav, LLC. All rights reserved. Privacy Policy  Contact